Time;durP1;ratioP1;P1;durP2;ratioP2;P2;SDS_P1;SDS_P2;PMS_P1;PMS_P2;Temp;Humidity;BMP_temperature;BMP_pressure;BME280_temperature;BME280_humidity;BME280_pressure;Samples;Min_cycle;Max_cycle;Signal;HPM_P1;HPM_P2
2024/01/07 00:01:55;;;;;;;0.57;0.57;;;2.40;99.90;;;;;;5063428;28;20056;-60
2024/01/07 00:04:21;;;;;;;0.00;0.00;;;2.40;99.90;;;;;;5040324;28;20499;-60
2024/01/07 00:06:47;;;;;;;14.73;7.07;;;2.60;99.90;;;;;;5062357;28;20036;-63
2024/01/07 00:09:12;;;;;;;0.98;0.20;;;2.70;99.90;;;;;;5056277;28;20033;-62
2024/01/07 00:11:39;;;;;;;3.83;2.53;;;2.80;99.90;;;;;;5062575;28;20044;-62
2024/01/07 00:14:04;;;;;;;0.00;0.00;;;2.70;99.90;;;;;;5062337;28;20740;-62
2024/01/07 00:16:30;;;;;;;6.93;3.65;;;2.80;99.90;;;;;;5063496;28;20150;-62
2024/01/07 00:18:56;;;;;;;1.45;0.93;;;2.80;99.90;;;;;;5044306;28;20025;-62
2024/01/07 00:21:21;;;;;;;0.00;0.00;;;2.70;99.90;;;;;;5062837;28;20047;-63
2024/01/07 00:23:47;;;;;;;0.00;0.00;;;2.60;99.90;;;;;;5063412;28;20047;-58
2024/01/07 00:26:12;;;;;;;0.00;0.00;;;2.70;99.90;;;;;;5061019;28;20375;-58
2024/01/07 00:28:38;;;;;;;4.70;2.03;;;2.80;99.90;;;;;;5061647;28;20036;-58
2024/01/07 00:31:04;;;;;;;9.20;4.07;;;2.70;99.90;;;;;;5064552;28;20147;-57
2024/01/07 00:33:31;;;;;;;17.33;3.20;;;2.80;99.90;;;;;;5063577;28;20055;-57
2024/01/07 00:35:57;;;;;;;13.77;7.05;;;2.90;99.90;;;;;;5064295;28;20055;-58
2024/01/07 00:38:22;;;;;;;0.80;0.80;;;2.80;99.90;;;;;;5062638;28;20056;-58
2024/01/07 00:40:48;;;;;;;8.90;3.40;;;2.90;99.90;;;;;;5061245;28;20039;-57
2024/01/07 00:43:14;;;;;;;0.15;0.15;;;3.10;99.90;;;;;;5041614;28;20283;-57
2024/01/07 00:45:39;;;;;;;1.40;1.30;;;3.10;99.90;;;;;;5061216;28;20044;-59
2024/01/07 00:48:05;;;;;;;7.35;4.25;;;3.00;99.90;;;;;;5063264;28;20037;-59
2024/01/07 00:50:31;;;;;;;5.25;1.92;;;2.90;99.90;;;;;;5059930;28;20044;-58
2024/01/07 00:52:56;;;;;;;11.77;2.67;;;2.80;99.90;;;;;;5061539;28;20044;-61
2024/01/07 00:55:23;;;;;;;19.48;7.97;;;2.80;99.90;;;;;;5059420;28;20082;-63
2024/01/07 00:57:49;;;;;;;1.35;1.08;;;2.60;99.90;;;;;;5060762;28;20037;-63
2024/01/07 01:00:15;;;;;;;0.95;0.95;;;2.70;99.90;;;;;;5064192;28;20037;-62
2024/01/07 01:02:41;;;;;;;3.55;3.03;;;2.90;99.90;;;;;;5067056;28;20399;-63
2024/01/07 01:05:07;;;;;;;1.23;1.13;;;2.80;99.90;;;;;;5042104;28;20028;-62
2024/01/07 01:07:32;;;;;;;6.40;3.55;;;2.90;99.90;;;;;;5061129;28;20145;-61
2024/01/07 01:09:58;;;;;;;0.73;0.73;;;3.00;99.90;;;;;;5064704;28;20145;-61
2024/01/07 01:12:24;;;;;;;2.90;0.82;;;2.80;99.90;;;;;;5058151;28;20039;-62
2024/01/07 01:14:50;;;;;;;5.57;3.50;;;3.00;99.90;;;;;;5060620;28;20086;-63
2024/01/07 01:17:15;;;;;;;0.50;0.50;;;2.90;99.90;;;;;;5059494;28;20119;-62
2024/01/07 01:19:41;;;;;;;2.38;2.17;;;2.90;99.90;;;;;;5060778;28;20123;-61
2024/01/07 01:22:06;;;;;;;4.53;2.75;;;2.90;99.90;;;;;;5058046;28;20040;-63
2024/01/07 01:24:32;;;;;;;0.75;0.75;;;2.70;99.90;;;;;;5059703;28;20072;-63
2024/01/07 01:26:57;;;;;;;6.07;3.38;;;2.90;99.90;;;;;;5061553;28;20058;-63
2024/01/07 01:29:23;;;;;;;0.55;0.55;;;2.90;99.90;;;;;;5059436;28;20032;-62
2024/01/07 01:31:49;;;;;;;0.80;0.80;;;2.90;99.90;;;;;;5060272;28;20554;-57
2024/01/07 01:34:14;;;;;;;3.53;2.72;;;2.80;99.90;;;;;;5059467;28;20033;-57
2024/01/07 01:36:40;;;;;;;9.02;3.97;;;2.70;99.90;;;;;;5061222;28;20079;-57
2024/01/07 01:39:06;;;;;;;3.15;2.60;;;2.70;99.90;;;;;;5059397;28;20082;-58
2024/01/07 01:41:33;;;;;;;3.70;2.22;;;2.70;99.90;;;;;;5064740;28;20032;-58
2024/01/07 01:44:00;;;;;;;7.88;3.85;;;2.70;99.90;;;;;;5060507;28;20042;-58
2024/01/07 01:46:26;;;;;;;0.13;0.13;;;2.70;99.90;;;;;;5041634;28;20495;-58
2024/01/07 01:48:52;;;;;;;0.00;0.00;;;2.80;99.90;;;;;;5059714;28;20143;-58
2024/01/07 01:51:18;;;;;;;0.85;0.75;;;2.90;99.90;;;;;;5059937;28;20044;-58
2024/01/07 01:53:44;;;;;;;1.38;1.27;;;2.90;99.90;;;;;;5062131;28;20055;-58
2024/01/07 01:56:10;;;;;;;3.90;3.42;;;2.70;99.90;;;;;;5041373;28;20313;-58
2024/01/07 01:58:36;;;;;;;1.33;0.93;;;2.70;99.90;;;;;;5061449;28;20046;-58
2024/01/07 02:01:03;;;;;;;7.13;3.53;;;2.70;99.90;;;;;;5061134;28;20118;-57
2024/01/07 02:03:29;;;;;;;1.65;1.45;;;2.60;99.90;;;;;;5060421;28;20513;-64
2024/01/07 02:05:56;;;;;;;4.25;2.58;;;2.80;99.90;;;;;;5042500;28;20044;-65
2024/01/07 02:08:22;;;;;;;8.40;4.78;;;2.90;99.90;;;;;;5057061;28;20479;-61
2024/01/07 02:10:48;;;;;;;0.00;0.00;;;2.70;99.90;;;;;;5064489;28;20036;-62
2024/01/07 02:13:13;;;;;;;6.20;3.50;;;2.70;99.90;;;;;;5062920;28;20033;-61
2024/01/07 02:15:39;;;;;;;1.08;0.70;;;2.70;99.90;;;;;;5061228;28;20355;-61
2024/01/07 02:18:05;;;;;;;0.20;0.20;;;2.80;99.90;;;;;;5058662;28;20573;-63
2024/01/07 02:20:30;;;;;;;0.20;0.20;;;3.00;99.90;;;;;;5059721;28;20155;-62
2024/01/07 02:22:59;;;;;;;5.78;2.28;;;2.90;99.90;;;;;;5060028;28;20063;-60
2024/01/07 02:25:24;;;;;;;12.35;6.10;;;2.60;99.90;;;;;;5056657;28;20102;-62
2024/01/07 02:27:50;;;;;;;6.35;1.92;;;2.60;99.90;;;;;;5042319;28;20037;-62
2024/01/07 02:30:17;;;;;;;10.48;8.23;;;2.50;99.90;;;;;;5058230;28;20123;-61
2024/01/07 02:32:42;;;;;;;7.63;3.15;;;2.60;99.90;;;;;;5060487;28;20040;-62
2024/01/07 02:35:08;;;;;;;7.82;3.95;;;2.50;99.90;;;;;;5060497;28;20055;-63
2024/01/07 02:37:34;;;;;;;8.15;4.93;;;2.60;99.90;;;;;;5060226;28;20075;-63
2024/01/07 02:40:00;;;;;;;9.27;4.80;;;2.40;99.90;;;;;;5061348;28;20476;-62
2024/01/07 02:42:25;;;;;;;3.83;1.38;;;2.60;99.90;;;;;;5063996;28;20036;-57
2024/01/07 02:44:51;;;;;;;3.95;2.35;;;2.60;99.90;;;;;;5061875;28;20112;-58
2024/01/07 02:47:16;;;;;;;0.35;0.35;;;2.60;99.90;;;;;;5040588;28;20035;-58
2024/01/07 02:49:42;;;;;;;11.77;5.50;;;2.60;99.90;;;;;;5060416;28;20037;-57
2024/01/07 02:52:07;;;;;;;2.92;2.03;;;2.50;99.90;;;;;;5058983;28;20044;-57
2024/01/07 02:54:33;;;;;;;7.13;3.17;;;2.50;99.90;;;;;;5062080;28;21148;-58
2024/01/07 02:56:59;;;;;;;0.57;0.52;;;2.50;99.90;;;;;;5060135;28;20447;-58
2024/01/07 02:59:24;;;;;;;10.68;3.53;;;2.40;99.90;;;;;;5061585;28;20035;-57
2024/01/07 03:01:50;;;;;;;9.07;3.83;;;2.50;99.90;;;;;;5058775;28;20036;-58
2024/01/07 03:04:16;;;;;;;2.28;1.17;;;2.40;99.90;;;;;;5059767;28;20047;-59
2024/01/07 03:06:41;;;;;;;1.25;1.17;;;2.60;99.90;;;;;;5060335;28;20056;-57
2024/01/07 03:09:07;;;;;;;17.83;8.60;;;2.90;99.90;;;;;;5058777;28;20601;-57
2024/01/07 03:11:33;;;;;;;12.40;4.05;;;2.50;99.90;;;;;;5060318;28;20380;-58
2024/01/07 03:13:58;;;;;;;10.50;5.32;;;2.40;99.90;;;;;;5056635;28;20131;-62
2024/01/07 03:16:25;;;;;;;9.68;5.78;;;2.30;99.90;;;;;;5059127;28;20033;-62
2024/01/07 03:18:52;;;;;;;0.65;0.65;;;2.30;99.90;;;;;;5063279;28;20039;-62
2024/01/07 03:21:23;;;;;;;11.15;5.32;;;2.30;99.90;;;;;;5059408;28;20074;-63
2024/01/07 03:23:50;;;;;;;9.10;4.03;;;2.50;99.90;;;;;;5058518;28;20395;-62
2024/01/07 03:26:17;;;;;;;0.55;0.55;;;2.50;99.90;;;;;;5059265;28;20449;-63
2024/01/07 03:28:43;;;;;;;3.28;1.55;;;2.60;99.90;;;;;;5060325;28;20323;-62
2024/01/07 03:31:12;;;;;;;2.17;1.33;;;2.40;99.90;;;;;;5059151;28;20036;-62
2024/01/07 03:33:38;;;;;;;6.50;3.97;;;2.30;99.90;;;;;;5059451;28;20135;-61
2024/01/07 03:36:12;;;;;;;3.92;1.60;;;2.40;99.90;;;;;;5041249;28;20373;-62
2024/01/07 03:38:38;;;;;;;0.30;0.20;;;2.30;99.90;;;;;;5062666;28;20032;-61
2024/01/07 03:41:04;;;;;;;17.83;7.55;;;2.30;99.90;;;;;;5044685;28;20672;-62
2024/01/07 03:43:29;;;;;;;1.85;1.75;;;2.50;99.90;;;;;;5063014;28;20044;-61
2024/01/07 03:45:55;;;;;;;3.60;2.35;;;2.60;99.90;;;;;;5062377;28;20098;-63
2024/01/07 03:48:21;;;;;;;0.57;0.57;;;2.60;99.90;;;;;;5063341;28;20052;-61
2024/01/07 03:50:46;;;;;;;4.28;1.42;;;2.50;99.90;;;;;;5044781;28;20036;-63
2024/01/07 03:53:13;;;;;;;0.65;0.65;;;2.60;99.90;;;;;;5061668;28;20043;-59
2024/01/07 03:55:38;;;;;;;1.55;1.15;;;2.70;99.90;;;;;;5063574;28;20499;-59
2024/01/07 03:58:08;;;;;;;1.20;1.10;;;2.50;99.90;;;;;;5042480;28;20502;-59
2024/01/07 04:00:34;;;;;;;2.63;1.33;;;2.50;99.90;;;;;;5044684;28;20127;-57
2024/01/07 04:03:01;;;;;;;3.40;2.03;;;2.40;99.90;;;;;;5064891;28;20105;-58
2024/01/07 04:05:26;;;;;;;5.70;5.25;;;2.40;99.90;;;;;;5063735;28;20060;-58
2024/01/07 04:07:52;;;;;;;1.17;0.75;;;2.50;99.90;;;;;;5063286;28;20386;-59
2024/01/07 04:10:18;;;;;;;14.13;6.43;;;2.40;99.90;;;;;;5062708;28;20039;-58
2024/01/07 04:12:44;;;;;;;17.98;8.65;;;2.40;99.90;;;;;;5063302;28;20044;-57
2024/01/07 04:15:13;;;;;;;14.43;6.70;;;2.30;99.90;;;;;;5063233;28;20420;-58
2024/01/07 04:17:39;;;;;;;2.15;1.98;;;2.30;99.90;;;;;;5063017;28;20039;-58
2024/01/07 04:20:05;;;;;;;3.30;1.85;;;2.30;99.90;;;;;;5061663;28;20805;-57
2024/01/07 04:22:31;;;;;;;8.57;5.20;;;2.30;99.90;;;;;;5052714;28;20101;-59
2024/01/07 04:24:57;;;;;;;3.10;1.70;;;2.20;99.90;;;;;;5061966;28;20424;-57
2024/01/07 04:27:24;;;;;;;12.60;3.85;;;2.30;99.90;;;;;;5061702;28;20413;-58
2024/01/07 04:29:50;;;;;;;0.50;0.50;;;2.30;99.90;;;;;;5063639;28;20074;-58
2024/01/07 04:32:16;;;;;;;3.15;2.00;;;2.40;99.90;;;;;;5061009;28;20376;-60
2024/01/07 04:34:41;;;;;;;2.95;2.28;;;2.30;99.90;;;;;;5061413;28;20492;-58
2024/01/07 04:37:07;;;;;;;1.65;0.98;;;2.30;99.90;;;;;;5060679;28;20036;-58
2024/01/07 04:39:32;;;;;;;2.63;1.88;;;2.20;99.90;;;;;;5062033;28;20103;-58
2024/01/07 04:41:58;;;;;;;13.73;4.97;;;2.30;99.90;;;;;;5061794;28;20060;-57
2024/01/07 04:44:23;;;;;;;12.85;6.32;;;2.40;99.90;;;;;;5063196;28;20090;-57
2024/01/07 04:46:49;;;;;;;0.08;0.08;;;2.40;99.90;;;;;;5063610;28;20056;-57
2024/01/07 04:49:15;;;;;;;16.98;7.40;;;2.60;99.90;;;;;;5058429;28;20052;-59
2024/01/07 04:51:40;;;;;;;5.72;2.85;;;2.20;99.90;;;;;;5061816;28;20484;-58
2024/01/07 04:54:06;;;;;;;15.35;7.45;;;2.30;99.90;;;;;;5057843;28;20428;-59
2024/01/07 04:56:32;;;;;;;16.17;8.40;;;2.10;99.90;;;;;;5062782;28;20364;-58
2024/01/07 04:58:58;;;;;;;10.43;6.40;;;2.00;99.90;;;;;;5063781;28;20047;-58
2024/01/07 05:01:23;;;;;;;17.13;9.02;;;2.00;99.90;;;;;;5061180;28;20037;-58
2024/01/07 05:03:49;;;;;;;15.75;7.90;;;1.90;99.90;;;;;;5061773;28;20044;-64
2024/01/07 05:06:15;;;;;;;0.30;0.30;;;2.00;99.90;;;;;;5060075;28;20097;-64
2024/01/07 05:08:41;;;;;;;13.70;7.22;;;2.00;99.90;;;;;;5065999;28;20033;-63
2024/01/07 05:11:07;;;;;;;8.45;4.53;;;2.20;99.90;;;;;;5058039;28;20468;-64
2024/01/07 05:13:33;;;;;;;11.57;5.82;;;2.20;99.90;;;;;;5063658;28;20087;-63
2024/01/07 05:15:58;;;;;;;6.47;3.38;;;2.10;99.90;;;;;;5061543;28;20055;-63
2024/01/07 05:18:24;;;;;;;10.48;5.88;;;2.00;99.90;;;;;;5063234;28;20028;-64
2024/01/07 05:20:50;;;;;;;7.53;4.18;;;2.10;99.90;;;;;;5061210;28;20048;-63
2024/01/07 05:23:16;;;;;;;0.00;0.00;;;2.00;99.90;;;;;;5062360;28;20032;-63
2024/01/07 05:25:43;;;;;;;3.05;2.13;;;2.10;99.90;;;;;;5058290;28;20468;-64
2024/01/07 05:28:09;;;;;;;13.02;6.93;;;;;;;;;;5060823;28;20037;-64
2024/01/07 05:30:35;;;;;;;12.00;5.35;;;;;;;;;;5062308;28;20033;-64
2024/01/07 05:33:01;;;;;;;14.43;7.35;;;;;;;;;;5063495;28;20307;-64
2024/01/07 05:35:26;;;;;;;8.50;3.92;;;1.90;99.90;;;;;;5042209;28;21366;-64
2024/01/07 05:37:52;;;;;;;8.68;3.85;;;2.30;99.90;;;;;;5061788;28;20025;-63
2024/01/07 05:40:17;;;;;;;2.53;2.10;;;2.20;99.90;;;;;;5062104;28;20036;-63
2024/01/07 05:42:43;;;;;;;12.90;5.13;;;2.10;99.90;;;;;;5060467;28;20028;-64
2024/01/07 05:45:09;;;;;;;10.55;5.15;;;2.10;99.90;;;;;;5059142;28;20037;-63
2024/01/07 05:47:34;;;;;;;1.00;0.85;;;2.10;99.90;;;;;;5059972;28;20115;-63
2024/01/07 05:50:00;;;;;;;8.32;3.78;;;2.10;99.90;;;;;;5062479;28;20044;-63
2024/01/07 05:52:26;;;;;;;5.88;2.75;;;2.10;99.90;;;;;;5060249;28;20464;-64
2024/01/07 05:54:52;;;;;;;17.83;9.93;;;2.10;99.90;;;;;;5052713;28;20114;-62
2024/01/07 05:57:18;;;;;;;11.50;6.63;;;;;;;;;;5056921;28;20107;-64
2024/01/07 05:59:44;;;;;;;5.00;1.88;;;2.00;99.90;;;;;;5062935;28;20466;-64
2024/01/07 06:02:10;;;;;;;10.50;5.43;;;;;;;;;;5059771;28;20044;-64
2024/01/07 06:04:37;;;;;;;11.05;4.57;;;2.00;99.90;;;;;;5063011;28;20048;-64
2024/01/07 06:07:03;;;;;;;15.20;7.95;;;1.90;99.90;;;;;;5060416;28;20337;-63
2024/01/07 06:09:29;;;;;;;0.98;0.82;;;2.00;99.90;;;;;;5064708;28;20033;-61
2024/01/07 06:11:55;;;;;;;16.33;8.43;;;;;;;;;;5063568;28;20028;-59
2024/01/07 06:14:21;;;;;;;8.65;4.00;;;;;;;;;;5059259;28;20032;-58
2024/01/07 06:16:47;;;;;;;13.20;7.18;;;;;;;;;;5061325;28;20148;-60
2024/01/07 06:19:14;;;;;;;6.22;3.60;;;;;;;;;;5040507;28;20128;-58
2024/01/07 06:21:40;;;;;;;8.63;4.30;;;1.70;99.90;;;;;;5064249;28;20028;-59
2024/01/07 06:24:08;;;;;;;9.77;4.65;;;1.80;99.90;;;;;;5059756;28;20365;-58
2024/01/07 06:26:33;;;;;;;6.90;4.22;;;1.80;99.90;;;;;;5059234;28;20035;-59
2024/01/07 06:28:59;;;;;;;15.88;7.47;;;1.70;99.90;;;;;;5060118;28;20044;-58
2024/01/07 06:31:25;;;;;;;18.33;6.97;;;1.80;99.90;;;;;;5059223;28;20119;-58
2024/01/07 06:33:51;;;;;;;6.93;3.92;;;1.90;99.90;;;;;;5060608;28;20357;-59
2024/01/07 06:36:17;;;;;;;8.00;4.10;;;1.80;99.90;;;;;;5060698;28;20052;-58
2024/01/07 06:38:43;;;;;;;13.88;6.88;;;1.90;99.90;;;;;;5060168;28;20126;-60
2024/01/07 06:41:10;;;;;;;4.43;2.67;;;1.80;99.90;;;;;;5050750;28;20115;-59
2024/01/07 06:43:36;;;;;;;1.55;1.33;;;1.70;99.90;;;;;;5061214;28;20036;-58
2024/01/07 06:46:01;;;;;;;15.02;6.55;;;1.80;99.90;;;;;;5059283;28;20045;-60
2024/01/07 06:48:27;;;;;;;9.63;5.15;;;1.70;99.90;;;;;;5059535;28;20047;-58
2024/01/07 06:50:52;;;;;;;13.18;7.68;;;1.80;99.90;;;;;;5062118;28;20129;-58
2024/01/07 06:53:18;;;;;;;11.13;6.38;;;1.90;99.90;;;;;;5057278;28;20121;-59
2024/01/07 06:55:43;;;;;;;21.80;10.57;;;1.70;99.90;;;;;;5061328;28;20033;-60
2024/01/07 06:58:09;;;;;;;9.82;5.60;;;;;;;;;;5059730;28;20371;-59
2024/01/07 07:00:35;;;;;;;14.40;8.50;;;;;;;;;;5061577;28;20147;-58
2024/01/07 07:03:01;;;;;;;7.78;4.13;;;;;;;;;;5060326;28;20045;-62
2024/01/07 07:05:27;;;;;;;9.55;5.15;;;;;;;;;;5062719;28;20392;-64
2024/01/07 07:07:53;;;;;;;4.28;2.47;;;;;;;;;;5062197;28;20081;-64
2024/01/07 07:10:19;;;;;;;16.08;7.28;;;;;;;;;;5061411;28;20052;-63
2024/01/07 07:12:45;;;;;;;6.82;3.85;;;;;;;;;;5063631;28;20040;-62
2024/01/07 07:15:11;;;;;;;7.07;4.40;;;;;;;;;;5062611;28;20388;-63
2024/01/07 07:17:38;;;;;;;13.43;5.35;;;;;;;;;;5063309;28;20032;-63
2024/01/07 07:20:05;;;;;;;11.73;6.78;;;;;;;;;;5045532;28;20035;-63
2024/01/07 07:22:31;;;;;;;10.00;6.20;;;;;;;;;;5065061;28;20048;-59
2024/01/07 07:24:57;;;;;;;11.15;5.75;;;;;;;;;;5063734;28;20442;-59
2024/01/07 07:27:23;;;;;;;11.88;6.30;;;;;;;;;;5044074;28;20037;-59
2024/01/07 07:29:49;;;;;;;13.85;5.63;;;;;;;;;;5062755;28;20103;-57
2024/01/07 07:32:15;;;;;;;5.90;4.00;;;;;;;;;;5063814;28;20199;-59
2024/01/07 07:34:41;;;;;;;5.97;3.35;;;;;;;;;;5062923;28;20516;-58
2024/01/07 07:37:07;;;;;;;11.48;7.20;;;;;;;;;;5045662;28;20062;-58
2024/01/07 07:39:33;;;;;;;0.70;0.70;;;;;;;;;;5062003;28;20417;-59
2024/01/07 07:41:59;;;;;;;15.05;9.00;;;;;;;;;;5063495;28;20032;-58
2024/01/07 07:44:25;;;;;;;9.35;5.30;;;;;;;;;;5046798;28;20090;-58
2024/01/07 07:46:51;;;;;;;9.63;5.72;;;;;;;;;;5064159;28;20076;-58
2024/01/07 07:49:17;;;;;;;8.25;4.75;;;;;;;;;;5060550;28;20043;-59
2024/01/07 07:51:44;;;;;;;5.93;3.35;;;;;;;;;;5065221;28;20066;-58
2024/01/07 07:54:10;;;;;;;3.17;1.92;;;;;;;;;;5062469;28;20441;-57
2024/01/07 07:56:36;;;;;;;14.27;7.88;;;;;;;;;;5065726;28;20040;-58
2024/01/07 07:59:04;;;;;;;11.10;6.22;;;;;;;;;;5062548;28;20119;-59
2024/01/07 08:01:30;;;;;;;5.22;2.00;;;;;;;;;;5061966;28;20032;-59
2024/01/07 08:03:56;;;;;;;6.65;4.10;;;1.60;99.90;;;;;;5062635;28;20040;-58
2024/01/07 08:06:22;;;;;;;9.88;6.05;;;1.60;99.90;;;;;;5061126;28;20040;-59
2024/01/07 08:08:47;;;;;;;10.35;3.83;;;1.60;99.90;;;;;;5044812;28;20032;-58
2024/01/07 08:11:13;;;;;;;0.80;0.60;;;1.60;99.90;;;;;;5062389;28;20033;-60
2024/01/07 08:13:39;;;;;;;8.68;4.70;;;1.90;99.90;;;;;;5062310;28;20464;-63
2024/01/07 08:16:06;;;;;;;6.18;3.60;;;;;;;;;;5060815;28;20048;-63
2024/01/07 08:18:32;;;;;;;7.78;2.13;;;;;;;;;;5061550;28;20553;-63
2024/01/07 08:20:58;;;;;;;9.50;4.95;;;1.60;99.90;;;;;;5060858;28;20329;-63
2024/01/07 08:23:27;;;;;;;12.20;6.00;;;1.50;99.90;;;;;;5060623;28;20504;-63
2024/01/07 08:25:52;;;;;;;9.77;5.55;;;1.60;99.90;;;;;;5062461;28;20037;-63
2024/01/07 08:28:18;;;;;;;6.90;4.25;;;1.50;99.90;;;;;;5061753;28;20040;-63
2024/01/07 08:30:44;;;;;;;1.55;1.17;;;1.60;99.90;;;;;;5067516;28;20032;-63
2024/01/07 08:33:10;;;;;;;5.57;2.72;;;1.60;99.90;;;;;;5062429;28;20122;-63
2024/01/07 08:35:36;;;;;;;10.38;3.17;;;1.70;99.90;;;;;;5042422;28;20033;-63
2024/01/07 08:38:01;;;;;;;7.10;3.80;;;1.60;99.90;;;;;;5059983;28;20415;-63
2024/01/07 08:40:27;;;;;;;10.88;5.82;;;1.60;99.90;;;;;;5063350;28;20036;-63
2024/01/07 08:42:52;;;;;;;2.13;1.80;;;1.50;99.90;;;;;;5061380;28;20037;-63
2024/01/07 08:45:18;;;;;;;5.10;3.45;;;1.60;99.90;;;;;;5059417;28;20068;-61
2024/01/07 08:47:44;;;;;;;9.70;4.07;;;1.60;99.90;;;;;;5060175;28;20037;-63
2024/01/07 08:50:10;;;;;;;6.18;2.60;;;1.60;99.90;;;;;;5061073;28;20037;-63
2024/01/07 08:52:35;;;;;;;9.20;4.10;;;1.80;99.90;;;;;;5061986;28;20044;-63
2024/01/07 08:55:02;;;;;;;8.00;4.13;;;1.60;99.90;;;;;;5060646;28;20555;-62
2024/01/07 08:57:28;;;;;;;8.88;3.70;;;1.50;99.90;;;;;;5045168;28;20070;-62
2024/01/07 08:59:53;;;;;;;5.65;3.70;;;1.60;99.90;;;;;;5067452;28;20137;-63
2024/01/07 09:02:19;;;;;;;1.80;1.25;;;1.60;99.90;;;;;;5061883;28;20516;-63
2024/01/07 09:04:44;;;;;;;11.75;5.65;;;1.70;99.90;;;;;;5061841;28;20036;-61
2024/01/07 09:07:10;;;;;;;9.38;5.20;;;1.60;99.90;;;;;;5061762;28;20035;-63
2024/01/07 09:09:36;;;;;;;8.77;3.58;;;1.60;99.90;;;;;;5060957;28;20037;-65
2024/01/07 09:12:03;;;;;;;8.57;4.97;;;1.80;99.90;;;;;;5045844;28;20611;-65
2024/01/07 09:14:29;;;;;;;12.40;4.13;;;1.90;99.90;;;;;;5063672;28;20024;-66
2024/01/07 09:16:55;;;;;;;3.83;1.42;;;2.00;99.90;;;;;;5060652;28;20971;-67
2024/01/07 09:19:21;;;;;;;2.13;1.73;;;1.90;99.90;;;;;;5058977;28;20039;-66
2024/01/07 09:21:46;;;;;;;5.88;3.75;;;1.80;99.90;;;;;;5061940;28;20377;-62
2024/01/07 09:24:12;;;;;;;6.47;3.75;;;1.80;99.90;;;;;;5060881;28;20474;-61
2024/01/07 09:26:38;;;;;;;5.78;3.25;;;1.90;99.90;;;;;;5060434;28;20047;-61
2024/01/07 09:29:03;;;;;;;2.17;1.48;;;1.80;99.90;;;;;;5047334;28;20044;-61
2024/01/07 09:31:29;;;;;;;1.85;1.25;;;2.00;99.90;;;;;;5061849;28;20044;-61
2024/01/07 09:33:54;;;;;;;8.77;3.67;;;2.00;99.90;;;;;;5059506;28;20052;-60
2024/01/07 09:36:20;;;;;;;1.52;1.30;;;1.90;99.90;;;;;;5042057;28;22176;-60
2024/01/07 09:38:45;;;;;;;3.45;2.55;;;1.90;99.90;;;;;;5060042;28;20938;-62
2024/01/07 09:41:11;;;;;;;0.77;0.68;;;2.00;99.90;;;;;;5060499;28;20032;-61
2024/01/07 09:43:37;;;;;;;8.70;4.32;;;1.80;99.90;;;;;;5061912;28;20032;-67
2024/01/07 09:46:03;;;;;;;10.30;4.60;;;1.60;99.90;;;;;;5059113;28;20538;-66
2024/01/07 09:48:29;;;;;;;2.20;1.30;;;1.50;99.90;;;;;;5046386;28;20079;-67
2024/01/07 09:50:58;;;;;;;0.40;0.40;;;1.60;99.90;;;;;;5061645;28;20408;-67
2024/01/07 09:53:27;;;;;;;5.20;2.67;;;1.70;99.90;;;;;;5061598;28;20032;-67
2024/01/07 09:55:58;;;;;;;6.63;3.65;;;1.60;99.90;;;;;;5063759;28;20037;-65
2024/01/07 09:58:25;;;;;;;6.40;2.95;;;1.60;99.90;;;;;;5063195;28;20036;-66
2024/01/07 10:00:51;;;;;;;6.65;2.20;;;1.60;99.90;;;;;;5061165;28;20516;-66
2024/01/07 10:03:17;;;;;;;3.72;2.05;;;1.70;99.90;;;;;;5066574;28;20067;-64
2024/01/07 10:05:42;;;;;;;5.25;2.80;;;1.90;99.90;;;;;;5062854;28;20060;-64
2024/01/07 10:08:09;;;;;;;2.17;1.08;;;1.80;99.90;;;;;;5059845;28;20035;-67
2024/01/07 10:10:36;;;;;;;10.48;5.80;;;1.60;99.90;;;;;;5067410;28;20066;-67
2024/01/07 10:13:02;;;;;;;6.93;4.05;;;1.50;99.90;;;;;;5041864;28;20043;-65
2024/01/07 10:15:28;;;;;;;0.73;0.73;;;1.50;99.90;;;;;;5063018;28;20044;-65
2024/01/07 10:18:05;;;;;;;12.90;5.70;;;1.80;99.90;;;;;;5059726;28;20511;-67
2024/01/07 10:20:32;;;;;;;3.85;2.40;;;1.60;99.90;;;;;;5064238;28;20040;-67
2024/01/07 10:22:58;;;;;;;4.97;3.10;;;1.50;99.90;;;;;;5042207;28;20230;-67
2024/01/07 10:25:23;;;;;;;5.45;3.13;;;1.50;99.90;;;;;;5059957;28;20052;-67
2024/01/07 10:27:49;;;;;;;9.35;6.80;;;1.30;99.90;;;;;;5060309;28;20056;-66
2024/01/07 10:30:16;;;;;;;2.45;1.38;;;1.30;99.90;;;;;;5060048;28;20040;-66
2024/01/07 10:32:43;;;;;;;3.30;1.95;;;1.30;99.90;;;;;;5067325;28;20123;-59
2024/01/07 10:35:14;;;;;;;7.03;4.22;;;1.40;99.90;;;;;;5062411;28;20645;-60
2024/01/07 10:37:40;;;;;;;8.10;3.10;;;1.60;99.90;;;;;;5061712;28;20492;-61
2024/01/07 10:40:07;;;;;;;6.70;3.70;;;1.70;99.90;;;;;;5060202;28;20035;-60
2024/01/07 10:42:34;;;;;;;5.47;2.85;;;1.60;99.90;;;;;;5065355;28;20119;-63
2024/01/07 10:45:02;;;;;;;4.32;1.20;;;1.40;99.90;;;;;;5043095;28;20032;-60
2024/01/07 10:47:31;;;;;;;3.08;1.48;;;1.40;99.90;;;;;;5058725;28;20599;-60
2024/01/07 10:49:58;;;;;;;6.13;3.17;;;1.40;99.90;;;;;;5057840;28;20931;-62
2024/01/07 10:52:27;;;;;;;2.72;1.45;;;1.40;99.90;;;;;;5042297;28;20216;-66
2024/01/07 10:54:56;;;;;;;11.18;6.30;;;1.50;99.90;;;;;;5062774;28;20028;-67
2024/01/07 10:57:44;;;;;;;10.93;4.82;;;1.60;99.90;;;;;;5060971;28;20550;-66
2024/01/07 11:00:18;;;;;;;3.40;2.28;;;1.50;99.90;;;;;;5059970;28;20032;-65
2024/01/07 11:02:54;;;;;;;4.43;1.80;;;1.50;99.90;;;;;;5059900;28;20383;-66
2024/01/07 11:05:37;;;;;;;4.78;2.33;;;1.70;99.90;;;;;;5059864;28;20376;-66
2024/01/07 11:08:13;;;;;;;;;;;1.40;99.90;;;;;;5059694;28;20115;-65
2024/01/07 11:10:53;;;;;;;7.30;4.07;;;1.40;99.90;;;;;;5059124;28;19966;-66
2024/01/07 11:13:36;;;;;;;3.67;1.95;;;1.40;99.90;;;;;;5059252;28;20458;-66
2024/01/07 11:16:14;;;;;;;1.50;1.23;;;1.40;99.90;;;;;;5057255;28;20102;-66
2024/01/07 11:19:01;;;;;;;4.93;3.15;;;1.50;99.90;;;;;;5058010;28;20032;-65
2024/01/07 11:21:27;;;;;;;1.10;0.82;;;1.40;99.90;;;;;;5058695;28;20032;-66
2024/01/07 11:23:53;;;;;;;6.55;2.65;;;1.50;99.90;;;;;;5061143;28;20060;-67
2024/01/07 11:26:20;;;;;;;1.48;1.33;;;1.20;99.90;;;;;;5060003;28;20132;-67
2024/01/07 11:28:55;;;;;;;5.72;3.20;;;1.20;99.90;;;;;;5057689;28;20166;-66
2024/01/07 11:31:42;;;;;;;8.18;3.28;;;1.30;99.90;;;;;;5056359;28;20058;-66
2024/01/07 11:34:10;;;;;;;3.63;1.85;;;1.40;99.90;;;;;;5059133;28;20052;-67
2024/01/07 11:36:36;;;;;;;2.90;1.85;;;1.50;99.90;;;;;;5059675;28;20029;-66
2024/01/07 11:39:03;;;;;;;0.85;0.70;;;1.50;99.90;;;;;;5059687;28;20040;-65
2024/01/07 11:41:33;;;;;;;4.22;2.15;;;1.60;99.90;;;;;;5059353;28;20066;-66
2024/01/07 11:44:00;;;;;;;4.25;2.42;;;1.50;99.90;;;;;;5059213;28;20047;-62
2024/01/07 11:46:30;;;;;;;5.13;2.40;;;1.60;99.90;;;;;;5039783;28;20044;-60
2024/01/07 11:48:58;;;;;;;4.63;2.65;;;1.50;99.90;;;;;;5058004;28;20067;-60
2024/01/07 11:51:31;;;;;;;3.00;1.67;;;1.40;1.00;;;;;;5057103;28;20036;-60
2024/01/07 11:53:57;;;;;;;6.78;2.97;;;1.60;99.90;;;;;;5058459;28;20040;-60
2024/01/07 11:56:25;;;;;;;1.83;0.45;;;1.20;1.00;;;;;;5055970;28;20090;-61
2024/01/07 11:58:51;;;;;;;7.28;2.45;;;1.30;99.90;;;;;;5060835;28;20044;-61
2024/01/07 12:01:17;;;;;;;6.65;2.97;;;1.50;9.60;;;;;;5063043;28;20087;-61
2024/01/07 12:03:46;;;;;;;2.67;1.05;;;1.40;99.90;;;;;;5062642;28;20032;-62
2024/01/07 12:06:15;;;;;;;1.38;0.73;;;1.50;1.00;;;;;;5043419;28;20055;-60
2024/01/07 12:08:42;;;;;;;3.15;1.52;;;1.60;99.90;;;;;;5064007;28;20514;-60
2024/01/07 12:11:11;;;;;;;2.28;0.75;;;1.50;1.00;;;;;;5059782;28;20029;-61
2024/01/07 12:13:37;;;;;;;2.75;1.65;;;1.70;1.00;;;;;;5064328;28;20123;-60
2024/01/07 12:16:07;;;;;;;5.50;3.03;;;1.40;99.90;;;;;;5064401;28;20035;-62
2024/01/07 12:18:33;;;;;;;2.00;1.20;;;1.50;99.90;;;;;;5064603;28;20024;-60
2024/01/07 12:20:59;;;;;;;6.30;2.55;;;1.60;1.00;;;;;;5062377;28;20082;-62
2024/01/07 12:23:26;;;;;;;4.68;2.60;;;1.60;99.90;;;;;;5060881;28;20426;-59
2024/01/07 12:25:58;;;;;;;5.38;2.72;;;1.30;1.00;;;;;;5063079;28;20615;-62
2024/01/07 12:28:23;;;;;;;9.90;3.10;;;1.20;1.00;;;;;;5042659;28;20028;-59
2024/01/07 12:30:49;;;;;;;5.00;2.45;;;1.20;1.00;;;;;;5061368;28;20123;-60
2024/01/07 12:33:20;;;;;;;4.88;2.47;;;1.10;1.00;;;;;;5058761;28;20086;-61
2024/01/07 12:35:47;;;;;;;6.72;3.00;;;1.20;1.00;;;;;;5060601;28;20117;-60
2024/01/07 12:38:12;;;;;;;4.78;1.40;;;1.00;99.90;;;;;;5041506;28;20040;-61
2024/01/07 12:40:39;;;;;;;3.10;1.13;;;1.10;99.90;;;;;;5063660;28;20151;-60
2024/01/07 12:43:06;;;;;;;7.07;1.75;;;1.30;99.90;;;;;;5061755;28;20801;-59
2024/01/07 12:45:32;;;;;;;1.45;0.47;;;1.50;99.90;;;;;;5061481;28;20352;-60
2024/01/07 12:48:01;;;;;;;2.70;1.63;;;1.50;1.00;;;;;;5058883;28;20070;-62
2024/01/07 12:50:29;;;;;;;2.42;0.77;;;1.60;99.90;;;;;;5059275;28;20177;-62
2024/01/07 12:53:01;;;;;;;2.17;1.10;;;1.50;99.90;;;;;;5032656;28;20566;-62
2024/01/07 12:55:26;;;;;;;0.93;0.30;;;1.30;99.90;;;;;;5042516;28;20024;-61
2024/01/07 12:57:54;;;;;;;3.53;0.95;;;1.40;99.90;;;;;;5061614;28;20063;-62
2024/01/07 13:00:20;;;;;;;1.17;0.63;;;1.50;99.90;;;;;;5042713;28;20063;-60
2024/01/07 13:02:45;;;;;;;0.52;0.35;;;1.40;17.20;;;;;;5060908;28;20040;-62
2024/01/07 13:05:11;;;;;;;2.75;1.58;;;1.40;1.00;;;;;;5064323;28;20032;-60